Time;durP1;ratioP1;P1;durP2;ratioP2;P2;SDS_P1;SDS_P2;PMS_P1;PMS_P2;Temp;Humidity;BMP_temperature;BMP_pressure;BME280_temperature;BME280_humidity;BME280_pressure;Samples;Min_cycle;Max_cycle;Signal;HPM_P1;HPM_P2
2021/08/21 00:00:38;;;;;;;6.53;3.30;;;14.30;99.90;14.10;97115.00;;;;5085923;28;20274;-72
2021/08/21 00:03:28;;;;;;;4.53;3.83;;;14.30;99.90;14.00;97114.00;;;;5083804;28;20705;-75
2021/08/21 00:06:17;;;;;;;4.07;3.60;;;14.20;99.90;14.10;97101.00;;;;5085895;28;20195;-74
2021/08/21 00:09:06;;;;;;;4.20;3.17;;;14.10;99.90;14.10;97107.00;;;;5094337;28;20238;-76
2021/08/21 00:11:55;;;;;;;3.50;3.20;;;14.10;99.90;14.10;97117.00;;;;5107733;28;20214;-74
2021/08/21 00:14:44;;;;;;;4.67;3.83;;;14.10;99.90;13.90;97111.00;;;;5109416;28;20198;-74
2021/08/21 00:17:33;;;;;;;5.97;3.70;;;14.10;99.90;13.60;97104.00;;;;5107335;28;20688;-74
2021/08/21 00:20:24;;;;;;;6.37;3.97;;;14.00;99.90;13.80;97112.00;;;;5109107;28;20588;-75
2021/08/21 00:23:13;;;;;;;4.23;3.80;;;14.00;99.90;13.90;97113.00;;;;5108986;28;20679;-74
2021/08/21 00:26:02;;;;;;;6.00;3.57;;;14.00;99.90;13.80;97109.00;;;;5109387;28;20202;-75
2021/08/21 00:28:50;;;;;;;4.90;3.50;;;13.90;99.90;13.80;97107.00;;;;5108495;28;20218;-75
2021/08/21 00:31:39;;;;;;;5.63;4.23;;;13.90;99.90;13.70;97104.00;;;;5108685;28;20716;-73
2021/08/21 00:34:28;;;;;;;5.83;4.10;;;13.90;99.90;13.70;97103.00;;;;5109403;28;20202;-73
2021/08/21 00:37:19;;;;;;;4.53;3.80;;;13.80;99.90;13.70;97097.00;;;;5107784;28;20209;-73
2021/08/21 00:40:09;;;;;;;5.67;4.07;;;13.80;99.90;13.60;97106.00;;;;5108777;28;20693;-73
2021/08/21 00:42:58;;;;;;;4.17;3.67;;;13.80;99.90;13.30;97110.00;;;;5107624;28;20206;-73
2021/08/21 00:45:48;;;;;;;4.17;3.23;;;13.70;99.90;13.30;97105.00;;;;5109117;28;20199;-75
2021/08/21 00:48:37;;;;;;;5.07;4.17;;;13.60;99.90;13.40;97108.00;;;;5107139;28;20233;-74
2021/08/21 00:51:26;;;;;;;5.37;4.00;;;13.50;99.90;13.30;97102.00;;;;5090176;28;20246;-72
2021/08/21 00:54:16;;;;;;;4.57;4.17;;;13.50;99.90;13.10;97103.00;;;;5086618;28;20204;-73
2021/08/21 00:57:06;;;;;;;4.60;3.77;;;13.40;99.90;13.50;97111.00;;;;5087018;28;20568;-74
2021/08/21 00:59:55;;;;;;;8.53;3.97;;;13.50;99.90;13.60;97107.00;;;;5087402;28;20199;-74
2021/08/21 01:02:46;;;;;;;6.83;4.03;;;13.50;99.90;13.50;97109.00;;;;5087042;28;20253;-73
2021/08/21 01:05:35;;;;;;;5.63;4.17;;;13.50;99.90;13.40;97104.00;;;;5088602;28;20203;-73
2021/08/21 01:08:24;;;;;;;6.83;4.00;;;13.50;99.90;13.20;97104.00;;;;5091150;28;20721;-71
2021/08/21 01:11:14;;;;;;;10.43;3.70;;;13.50;99.90;13.30;97110.00;;;;5106957;28;20316;-73
2021/08/21 01:14:04;;;;;;;6.50;3.90;;;13.40;99.90;13.50;97108.00;;;;5107368;28;20203;-74
2021/08/21 01:16:53;;;;;;;6.33;3.90;;;13.50;99.90;13.40;97109.00;;;;5108033;28;20268;-74
2021/08/21 01:19:46;;;;;;;5.57;4.03;;;13.50;99.90;13.30;97097.00;;;;5109743;28;20243;-75
2021/08/21 01:22:36;;;;;;;5.00;4.50;;;13.40;99.90;13.10;97107.00;;;;5106281;28;20226;-74
2021/08/21 01:25:28;;;;;;;4.40;3.87;;;13.40;99.90;13.10;97104.00;;;;5107512;28;20191;-73
2021/08/21 01:28:18;;;;;;;7.93;3.87;;;13.30;99.90;13.30;97096.00;;;;5108036;28;20199;-72
2021/08/21 01:31:08;;;;;;;10.93;4.10;;;13.30;99.90;13.20;97097.00;;;;5107190;28;20620;-74
2021/08/21 01:33:57;;;;;;;5.23;3.87;;;13.40;99.90;12.90;97092.00;;;;5108541;28;20202;-73
2021/08/21 01:36:49;;;;;;;5.73;3.57;;;13.30;99.90;13.20;97096.00;;;;5101089;28;20214;-71
2021/08/21 01:39:38;;;;;;;4.70;4.27;;;13.30;99.90;13.30;97103.00;;;;5106859;28;20213;-73
2021/08/21 01:42:27;;;;;;;4.83;3.90;;;13.30;99.90;13.40;97094.00;;;;5106617;28;20225;-74
2021/08/21 01:45:17;;;;;;;6.73;4.33;;;13.40;99.90;13.60;97096.00;;;;5104622;27;20196;-73
2021/08/21 01:48:07;;;;;;;6.07;4.10;;;13.50;99.90;13.70;97105.00;;;;5109278;27;20643;-74
2021/08/21 01:50:56;;;;;;;5.83;3.93;;;13.50;99.90;13.80;97110.00;;;;5106954;28;20230;-74
2021/08/21 01:53:45;;;;;;;6.47;4.70;;;13.60;99.90;13.90;97099.00;;;;5106732;28;20197;-73
2021/08/21 01:56:43;;;;;;;4.17;3.57;;;13.70;99.90;14.10;97113.00;;;;5108004;28;20198;-74
2021/08/21 01:59:34;;;;;;;4.53;3.47;;;13.80;99.90;14.20;97100.00;;;;5107784;28;20220;-75
2021/08/21 02:02:26;;;;;;;4.67;3.57;;;13.90;99.90;14.00;97101.00;;;;5106803;28;20448;-74
2021/08/21 02:05:15;;;;;;;4.30;3.70;;;14.00;99.90;13.60;97089.00;;;;5106336;28;20195;-73
2021/08/21 02:08:04;;;;;;;5.40;3.53;;;13.90;99.90;13.30;97093.00;;;;5106354;28;20568;-74
2021/08/21 02:10:53;;;;;;;4.53;4.10;;;13.80;99.90;13.30;97096.00;;;;5087557;28;20227;-74
2021/08/21 02:13:42;;;;;;;5.77;4.00;;;13.60;99.90;13.20;97094.00;;;;5086489;28;20199;-75
2021/08/21 02:16:31;;;;;;;5.67;4.13;;;13.60;99.90;13.10;97100.00;;;;5086559;28;20206;-74
2021/08/21 02:19:22;;;;;;;3.93;3.40;;;13.50;99.90;13.00;97095.00;;;;5087399;28;20199;-72
2021/08/21 02:22:11;;;;;;;9.00;4.10;;;13.40;99.90;13.10;97096.00;;;;5086050;28;20215;-74
2021/08/21 02:25:00;;;;;;;4.63;3.80;;;13.40;99.90;13.10;97099.00;;;;5085321;28;20682;-74
2021/08/21 02:27:58;;;;;;;6.07;4.17;;;13.40;99.90;13.20;97099.00;;;;5084486;28;20199;-74
2021/08/21 02:30:47;;;;;;;6.67;3.63;;;13.40;99.90;12.80;97110.00;;;;5084875;28;20219;-74
2021/08/21 02:33:36;;;;;;;7.30;4.17;;;13.30;99.90;12.80;97097.00;;;;5079369;28;20251;-73
2021/08/21 02:36:27;;;;;;;6.30;4.00;;;13.20;99.90;12.80;97102.00;;;;5084775;28;20202;-74
2021/08/21 02:39:16;;;;;;;4.57;4.17;;;13.10;99.90;13.10;97102.00;;;;5086685;28;20642;-74
2021/08/21 02:42:05;;;;;;;5.73;4.23;;;13.10;99.90;13.30;97116.00;;;;5086538;28;20219;-74
2021/08/21 02:44:54;;;;;;;5.63;4.33;;;13.20;99.90;13.50;97100.00;;;;5086488;28;20218;-74
2021/08/21 02:47:43;;;;;;;5.13;4.60;;;13.20;99.90;13.60;97105.00;;;;5085716;28;20678;-73
2021/08/21 02:50:32;;;;;;;9.00;4.67;;;13.30;99.90;13.80;97115.00;;;;5085279;28;20249;-74
2021/08/21 02:53:22;;;;;;;5.23;4.23;;;13.50;99.90;13.70;97109.00;;;;5085415;28;20199;-74
2021/08/21 02:56:11;;;;;;;4.13;3.73;;;13.60;99.90;13.40;97110.00;;;;5086020;28;20569;-73
2021/08/21 02:59:00;;;;;;;5.57;4.40;;;13.60;99.90;13.50;97111.00;;;;5085138;28;20207;-73
2021/08/21 03:01:49;;;;;;;7.73;4.53;;;13.50;99.90;13.60;97112.00;;;;5085117;28;20211;-74
2021/08/21 03:04:38;;;;;;;7.10;3.87;;;13.50;99.90;13.30;97119.00;;;;5085323;28;20199;-74
2021/08/21 03:07:27;;;;;;;5.43;4.63;;;13.50;99.90;13.30;97117.00;;;;5085685;28;20206;-73
2021/08/21 03:10:18;;;;;;;6.43;4.53;;;13.50;99.90;13.30;97128.00;;;;5086464;28;20223;-74
2021/08/21 03:13:06;;;;;;;5.57;3.80;;;13.40;99.90;13.20;97119.00;;;;5080479;28;20200;-74
2021/08/21 03:15:56;;;;;;;12.97;4.27;;;13.40;99.90;13.10;97118.00;;;;5101471;28;20205;-73
2021/08/21 03:18:44;;;;;;;4.97;3.80;;;13.30;99.90;13.10;97121.00;;;;5105968;28;20194;-75
2021/08/21 03:21:33;;;;;;;5.07;3.87;;;13.30;99.90;13.10;97119.00;;;;5106842;28;20218;-73
2021/08/21 03:24:22;;;;;;;4.93;4.00;;;13.30;99.90;13.00;97116.00;;;;5106528;28;20243;-74
2021/08/21 03:27:13;;;;;;;4.67;3.87;;;13.20;99.90;12.80;97122.00;;;;5105302;28;20570;-71
2021/08/21 03:30:02;;;;;;;7.47;4.77;;;13.10;99.90;12.70;97115.00;;;;5105693;28;20554;-71
2021/08/21 03:32:51;;;;;;;5.40;3.87;;;13.10;99.90;12.80;97123.00;;;;5105068;28;20199;-74
2021/08/21 03:35:40;;;;;;;6.23;4.20;;;13.00;99.90;12.90;97132.00;;;;5105378;28;20198;-74
2021/08/21 03:38:29;;;;;;;7.90;4.87;;;13.00;99.90;13.00;97133.00;;;;5105197;28;20202;-74
2021/08/21 03:41:17;;;;;;;6.03;4.60;;;13.00;99.90;13.10;97131.00;;;;5106063;28;20279;-73
2021/08/21 03:44:08;;;;;;;6.77;4.03;;;13.00;99.90;12.90;97136.00;;;;5104723;28;20206;-73
2021/08/21 03:46:57;;;;;;;7.73;4.43;;;13.00;99.90;12.70;97136.00;;;;5103624;28;20684;-73
2021/08/21 03:49:46;;;;;;;6.57;4.17;;;13.00;99.90;12.70;97131.00;;;;5109673;28;20209;-74
2021/08/21 03:52:35;;;;;;;5.20;4.20;;;13.00;99.90;12.70;97137.00;;;;5094942;28;20696;-74
2021/08/21 03:55:24;;;;;;;6.80;4.60;;;12.90;99.90;12.80;97142.00;;;;5109447;28;20202;-74
2021/08/21 03:58:13;;;;;;;5.17;4.10;;;12.90;99.90;12.70;97153.00;;;;5108474;28;20199;-74
2021/08/21 04:01:03;;;;;;;7.47;5.20;;;12.90;99.90;12.80;97147.00;;;;5109421;28;20218;-74
2021/08/21 04:03:52;;;;;;;5.10;4.50;;;12.90;99.90;12.60;97144.00;;;;5109645;28;20574;-74
2021/08/21 04:06:42;;;;;;;6.33;4.70;;;12.90;99.90;12.70;97144.00;;;;5109850;28;20692;-73
2021/08/21 04:09:31;;;;;;;6.60;5.20;;;12.90;99.90;13.00;97139.00;;;;5095861;28;20258;-73
2021/08/21 04:12:20;;;;;;;7.40;4.27;;;12.90;99.90;12.90;97147.00;;;;5088602;28;20231;-74
2021/08/21 04:15:10;;;;;;;8.57;4.57;;;11.60;99.90;12.80;97159.00;;;;5088866;28;20199;-74
2021/08/21 04:18:00;;;;;;;6.17;4.87;;;12.90;99.90;12.70;97149.00;;;;5088270;28;20206;-74
2021/08/21 04:20:49;;;;;;;7.60;4.83;;;12.90;99.90;12.70;97154.00;;;;5088706;28;20226;-74
2021/08/21 04:23:38;;;;;;;7.00;5.13;;;12.90;99.90;12.80;97150.00;;;;5088232;28;20678;-75
2021/08/21 04:26:27;;;;;;;7.60;5.30;;;12.90;99.90;12.80;97162.00;;;;5089241;28;20195;-74
2021/08/21 04:29:16;;;;;;;8.73;5.20;;;12.90;99.90;13.00;97163.00;;;;5088449;28;20252;-74
2021/08/21 04:32:06;;;;;;;8.57;5.13;;;12.90;99.90;13.00;97155.00;;;;5087141;28;20219;-74
2021/08/21 04:34:56;;;;;;;5.73;4.73;;;13.00;99.90;13.00;97168.00;;;;5086045;28;20191;-74
2021/08/21 04:37:45;;;;;;;4.73;4.27;;;13.00;99.90;13.20;97166.00;;;;5088295;28;20199;-74
2021/08/21 04:40:34;;;;;;;6.53;5.20;;;13.00;99.90;13.30;97168.00;;;;5088511;28;20199;-71
2021/08/21 04:43:23;;;;;;;5.57;4.97;;;13.10;99.90;13.30;97168.00;;;;5086458;28;20202;-74
2021/08/21 04:46:12;;;;;;;7.17;4.87;;;13.20;99.90;13.30;97166.00;;;;5090469;28;20553;-73
2021/08/21 04:49:01;;;;;;;6.13;4.90;;;13.20;99.90;13.30;97170.00;;;;5088702;28;20248;-73
2021/08/21 04:51:51;;;;;;;4.87;4.00;;;13.30;99.90;13.30;97174.00;;;;5088878;28;20271;-73
2021/08/21 04:54:40;;;;;;;6.57;5.30;;;13.30;99.90;13.30;97177.00;;;;5088470;28;20199;-73
2021/08/21 04:57:29;;;;;;;5.53;4.50;;;13.30;99.90;13.10;97174.00;;;;5086520;28;20206;-73
2021/08/21 05:00:18;;;;;;;7.07;5.07;;;13.30;99.90;13.10;97179.00;;;;5087572;28;20191;-73
2021/08/21 05:03:07;;;;;;;7.80;5.03;;;13.30;99.90;13.10;97182.00;;;;5087332;28;20598;-73
2021/08/21 05:05:56;;;;;;;5.63;4.83;;;13.20;99.90;13.10;97176.00;;;;5087524;28;20674;-73
2021/08/21 05:08:46;;;;;;;9.27;4.30;;;13.20;99.90;12.80;97177.00;;;;5087125;28;20557;-73
2021/08/21 05:11:35;;;;;;;7.37;4.50;;;13.20;99.90;13.00;97184.00;;;;5087859;28;20237;-73
2021/08/21 05:14:24;;;;;;;7.63;5.13;;;13.10;99.90;13.20;97174.00;;;;5087647;28;20199;-73
2021/08/21 05:17:13;;;;;;;6.43;4.20;;;13.20;99.90;13.50;97183.00;;;;5082191;28;20594;-73
2021/08/21 05:20:06;;;;;;;6.20;4.67;;;13.30;99.90;13.60;97194.00;;;;5087025;28;20214;-74
2021/08/21 05:23:06;;;;;;;7.03;4.93;;;13.40;99.90;13.80;97185.00;;;;5088234;28;20217;-74
2021/08/21 05:25:57;;;;;;;5.50;4.20;;;13.50;99.90;13.90;97178.00;;;;5087473;28;20213;-72
2021/08/21 05:28:46;;;;;;;5.30;4.80;;;13.60;99.90;13.80;97183.00;;;;5088063;28;20207;-73
2021/08/21 05:31:35;;;;;;;7.03;5.43;;;13.70;99.90;13.60;97187.00;;;;5087827;28;20609;-73
2021/08/21 05:34:24;;;;;;;7.80;5.13;;;13.70;99.90;13.70;97186.00;;;;5086882;28;20211;-73
2021/08/21 05:37:13;;;;;;;6.40;4.83;;;13.80;99.90;13.90;97173.00;;;;5087558;28;20203;-73
2021/08/21 05:40:02;;;;;;;5.60;4.50;;;13.80;99.90;14.10;97183.00;;;;5087467;28;20203;-74
2021/08/21 05:42:52;;;;;;;5.43;4.80;;;14.00;99.90;14.40;97192.00;;;;5086898;28;20188;-73
2021/08/21 05:45:41;;;;;;;5.47;4.13;;;14.10;99.90;14.60;97186.00;;;;5087003;28;20225;-73
2021/08/21 05:48:30;;;;;;;6.13;4.83;;;14.20;99.90;14.60;97188.00;;;;5106214;28;20596;-73
2021/08/21 05:51:19;;;;;;;6.83;4.87;;;14.40;99.90;14.70;97183.00;;;;5095956;28;20257;-74
2021/08/21 05:54:08;;;;;;;7.23;5.43;;;14.50;99.90;14.80;97193.00;;;;5086053;28;20195;-73
2021/08/21 05:56:58;;;;;;;5.57;4.93;;;14.60;99.90;15.10;97184.00;;;;5086950;28;20233;-73
2021/08/21 05:59:48;;;;;;;6.90;4.90;;;14.80;99.90;15.10;97194.00;;;;5087534;28;20225;-72
2021/08/21 06:02:37;;;;;;;6.27;5.17;;;14.90;99.90;15.10;97198.00;;;;5085992;28;20221;-73
2021/08/21 06:05:26;;;;;;;6.13;5.33;;;15.00;99.90;15.20;97193.00;;;;5085546;28;20195;-73
2021/08/21 06:08:14;;;;;;;8.73;5.37;;;15.10;99.90;15.40;97199.00;;;;5087436;28;20204;-72
2021/08/21 06:11:03;;;;;;;8.30;5.43;;;15.20;99.90;15.60;97196.00;;;;5107304;28;20238;-73
2021/08/21 06:13:52;;;;;;;8.43;5.47;;;15.30;99.90;15.70;97199.00;;;;5106267;28;20202;-72
2021/08/21 06:16:42;;;;;;;8.07;5.27;;;15.40;99.90;16.00;97196.00;;;;5106524;28;20198;-73
2021/08/21 06:19:31;;;;;;;6.63;5.43;;;15.50;99.90;16.30;97206.00;;;;5106271;28;20217;-72
2021/08/21 06:22:20;;;;;;;7.87;5.93;;;15.70;99.90;16.40;97205.00;;;;5107629;28;20225;-73
2021/08/21 06:25:11;;;;;;;8.67;6.53;;;15.90;99.90;16.70;97210.00;;;;5108018;28;20247;-73
2021/08/21 06:28:00;;;;;;;11.07;6.53;;;16.10;99.90;16.90;97201.00;;;;5106971;28;20199;-73
2021/08/21 06:30:49;;;;;;;10.30;7.33;;;16.30;99.90;17.10;97214.00;;;;5106791;28;20219;-73
2021/08/21 06:33:40;;;;;;;12.50;7.70;;;16.50;99.90;17.20;97199.00;;;;5105955;28;20226;-73
2021/08/21 06:36:29;;;;;;;10.03;7.80;;;16.70;99.90;17.50;97197.00;;;;5106272;28;20210;-72
2021/08/21 06:39:18;;;;;;;11.97;8.03;;;16.90;99.90;17.70;97203.00;;;;5107286;28;20199;-73
2021/08/21 06:42:07;;;;;;;11.30;6.73;;;17.10;99.90;18.10;97209.00;;;;5105682;28;20207;-73
2021/08/21 06:44:56;;;;;;;13.27;6.83;;;17.30;99.90;18.30;97200.00;;;;5106918;28;20194;-72
2021/08/21 06:47:45;;;;;;;11.40;8.90;;;17.60;99.90;18.50;97208.00;;;;5105445;28;20205;-73
2021/08/21 06:50:36;;;;;;;11.33;8.27;;;17.80;99.90;18.80;97205.00;;;;5104552;28;20476;-71
2021/08/21 06:53:26;;;;;;;14.63;7.83;;;18.00;99.90;19.00;97203.00;;;;5105867;28;20226;-72
2021/08/21 06:56:17;;;;;;;13.57;8.27;;;18.20;99.90;19.20;97203.00;;;;5105166;28;20203;-72
2021/08/21 06:59:06;;;;;;;9.77;7.33;;;18.40;99.90;19.30;97193.00;;;;5105815;28;20206;-74
2021/08/21 07:01:54;;;;;;;14.53;7.77;;;18.60;99.90;19.50;97197.00;;;;5106243;28;20286;-71
2021/08/21 07:04:43;;;;;;;8.33;7.37;;;18.80;99.90;19.70;97201.00;;;;5104752;28;20194;-72
2021/08/21 07:07:35;;;;;;;10.10;7.07;;;18.90;99.90;19.80;97204.00;;;;5104294;28;20242;-74
2021/08/21 07:10:24;;;;;;;9.77;7.30;;;19.10;99.90;20.00;97200.00;;;;5065795;28;20200;-73
2021/08/21 07:13:13;;;;;;;11.57;6.90;;;19.20;99.90;20.20;97196.00;;;;5064933;28;20223;-75
2021/08/21 07:16:02;;;;;;;11.37;7.40;;;19.40;99.90;20.30;97203.00;;;;5066141;28;20208;-73
2021/08/21 07:18:51;;;;;;;18.57;7.17;;;19.50;99.90;20.40;97208.00;;;;5065867;28;20196;-72
2021/08/21 07:21:40;;;;;;;9.67;7.30;;;19.70;99.90;20.50;97199.00;;;;5067282;28;20606;-72
2021/08/21 07:24:30;;;;;;;7.03;6.33;;;19.90;99.90;20.70;97199.00;;;;5082712;28;20199;-72
2021/08/21 07:27:19;;;;;;;9.67;7.53;;;20.00;99.90;20.90;97201.00;;;;5085069;28;20199;-72
2021/08/21 07:30:10;;;;;;;8.40;6.10;;;20.20;99.90;21.10;97194.00;;;;5085923;28;20207;-71
2021/08/21 07:32:58;;;;;;;8.97;6.47;;;20.30;99.90;21.10;97206.00;;;;5084378;28;20214;-70
2021/08/21 07:35:47;;;;;;;9.23;6.70;;;20.50;99.90;21.30;97208.00;;;;5086156;28;20681;-70
2021/08/21 07:38:36;;;;;;;8.83;6.50;;;20.60;99.90;21.50;97201.00;;;;5084627;28;20199;-73
2021/08/21 07:41:27;;;;;;;9.13;6.70;;;20.80;99.90;21.70;97194.00;;;;5084061;28;20241;-73
2021/08/21 07:44:16;;;;;;;10.87;6.87;;;20.90;99.90;21.70;97210.00;;;;5084879;28;20214;-71
2021/08/21 07:47:05;;;;;;;8.30;5.57;;;21.10;99.90;21.90;97210.00;;;;5063969;28;20694;-73
2021/08/21 07:49:54;;;;;;;6.90;6.20;;;21.20;99.90;22.10;97201.00;;;;5065292;28;20214;-69
2021/08/21 07:52:46;;;;;;;9.60;6.87;;;21.30;99.90;22.30;97204.00;;;;5080798;28;20283;-72
2021/08/21 07:55:36;;;;;;;10.07;7.17;;;21.50;99.90;22.20;97200.00;;;;5083480;28;20628;-75
2021/08/21 07:58:26;;;;;;;9.10;6.50;;;21.60;99.90;22.50;97207.00;;;;5085891;28;20689;-75
2021/08/21 08:01:15;;;;;;;8.53;6.37;;;21.70;99.90;22.70;97205.00;;;;5084610;28;20219;-70
2021/08/21 08:04:04;;;;;;;8.00;6.00;;;21.90;99.90;22.90;97196.00;;;;5084151;28;20191;-70
2021/08/21 08:06:53;;;;;;;7.60;5.97;;;22.10;99.90;23.10;97201.00;;;;5083602;28;20784;-73
2021/08/21 08:09:42;;;;;;;5.27;4.77;;;22.30;99.90;23.10;97198.00;;;;5098288;28;20198;-72
2021/08/21 08:12:31;;;;;;;6.13;5.20;;;22.40;99.90;23.10;97203.00;;;;5103690;28;20215;-71
2021/08/21 08:15:21;;;;;;;5.10;4.40;;;22.50;99.90;23.30;97200.00;;;;5103662;28;20202;-70
2021/08/21 08:18:10;;;;;;;7.77;4.53;;;22.60;99.90;23.50;97202.00;;;;5104244;28;20203;-70
2021/08/21 08:20:59;;;;;;;5.43;4.30;;;22.70;99.90;23.50;97202.00;;;;5103793;28;20222;-71
2021/08/21 08:23:49;;;;;;;5.30;4.20;;;22.80;99.90;23.60;97200.00;;;;5104294;28;20195;-70
2021/08/21 08:26:38;;;;;;;7.33;4.80;;;22.90;99.90;23.80;97202.00;;;;5104887;28;20198;-69
2021/08/21 08:29:27;;;;;;;4.83;3.70;;;23.00;99.90;23.80;97202.00;;;;5090778;28;20210;-69
2021/08/21 08:32:17;;;;;;;5.13;4.00;;;23.10;99.90;23.90;97207.00;;;;5089133;28;20606;-72
2021/08/21 08:35:08;;;;;;;6.33;4.30;;;23.20;99.90;24.10;97205.00;;;;5109159;28;20202;-69
2021/08/21 08:37:56;;;;;;;5.07;3.80;;;23.30;99.90;23.80;97208.00;;;;5128684;27;20202;-71
2021/08/21 08:40:47;;;;;;;4.87;4.33;;;23.40;99.90;23.80;97209.00;;;;5106560;27;20223;-72
2021/08/21 08:43:36;;;;;;;4.93;3.70;;;23.30;99.90;24.10;97209.00;;;;5108737;28;20202;-73
2021/08/21 08:46:25;;;;;;;5.07;4.57;;;23.40;99.90;23.80;97201.00;;;;5106746;28;20214;-71
2021/08/21 08:49:16;;;;;;;4.67;4.10;;;23.40;99.90;24.20;97200.00;;;;5107553;28;20194;-74
2021/08/21 08:52:07;;;;;;;4.80;3.73;;;23.50;99.90;24.20;97198.00;;;;5088283;28;20232;-72
2021/08/21 08:54:57;;;;;;;4.63;4.13;;;23.60;99.90;24.50;97198.00;;;;5085765;28;20306;-72
2021/08/21 08:57:47;;;;;;;5.63;4.03;;;23.70;99.90;24.90;97195.00;;;;5087690;28;20201;-70
2021/08/21 09:00:36;;;;;;;4.87;3.80;;;23.90;99.90;25.00;97198.00;;;;5083199;28;20208;-70
2021/08/21 09:03:27;;;;;;;5.83;4.33;;;24.10;99.90;25.10;97200.00;;;;5091326;28;20718;-72
2021/08/21 09:06:35;;;;;;;4.33;3.60;;;24.30;99.90;25.20;97204.00;;;;5087623;28;20256;-69
2021/08/21 09:09:26;;;;;;;4.93;4.03;;;24.40;99.90;25.40;97200.00;;;;5088267;28;20219;-70
2021/08/21 09:12:25;;;;;;;6.50;4.00;;;24.60;99.90;25.60;97200.00;;;;5087829;28;20242;-70
2021/08/21 09:15:28;;;;;;;9.70;4.20;;;24.70;99.90;25.80;97198.00;;;;5088131;28;20225;-70
2021/08/21 09:18:20;;;;;;;6.10;4.03;;;24.90;99.90;25.50;97198.00;;;;5087503;28;20207;-72
2021/08/21 09:21:19;;;;;;;4.03;3.40;;;25.00;99.60;25.70;97191.00;;;;5105575;28;20627;-72
2021/08/21 09:24:25;;;;;;;5.50;3.27;;;25.00;99.90;25.90;97197.00;;;;5107252;28;20586;-70
2021/08/21 09:27:19;;;;;;;4.33;3.93;;;25.10;99.90;26.10;97192.00;;;;5107401;28;20285;-70
2021/08/21 09:30:13;;;;;;;4.10;3.70;;;25.20;99.90;26.30;97189.00;;;;5090195;28;20202;-70
2021/08/21 09:33:03;;;;;;;6.87;4.30;;;25.40;99.90;25.90;97186.00;;;;5085993;28;20663;-71
2021/08/21 09:35:51;;;;;;;5.20;4.20;;;25.50;96.90;25.90;97191.00;;;;5087580;28;20207;-71
2021/08/21 09:38:42;;;;;;;5.20;3.73;;;25.40;96.40;26.10;97195.00;;;;5066053;28;20221;-71
2021/08/21 09:41:31;;;;;;;7.70;3.90;;;25.40;96.50;26.60;97189.00;;;;5084643;28;20233;-70
2021/08/21 09:44:27;;;;;;;5.07;4.33;;;25.60;98.20;26.50;97191.00;;;;5095785;28;20196;-71
2021/08/21 09:47:22;;;;;;;8.17;3.40;;;25.70;95.40;26.30;97185.00;;;;5084035;28;20920;-70
2021/08/21 09:50:17;;;;;;;5.73;4.23;;;25.80;94.80;25.50;97183.00;;;;5095359;28;20210;-69
2021/08/21 09:53:08;;;;;;;5.00;3.40;;;25.60;92.10;25.80;97178.00;;;;5110648;27;20900;-68
2021/08/21 09:56:11;;;;;;;4.17;3.73;;;25.60;92.20;26.90;97182.00;;;;5106960;28;20685;-69
2021/08/21 09:59:00;;;;;;;5.00;3.67;;;25.80;94.10;27.10;97175.00;;;;5107281;28;20195;-70
2021/08/21 10:01:49;;;;;;;4.77;3.63;;;26.00;94.20;27.00;97190.00;;;;5105072;28;20230;-68
2021/08/21 10:04:41;;;;;;;5.53;4.43;;;26.20;94.10;27.50;97175.00;;;;5108256;27;20199;-73
2021/08/21 10:07:34;;;;;;;8.43;5.13;;;26.40;93.70;27.80;97176.00;;;;5126848;27;20624;-68
2021/08/21 10:10:23;;;;;;;5.57;3.50;;;26.60;93.50;27.40;97178.00;;;;5086972;28;20212;-70
2021/08/21 10:13:24;;;;;;;5.23;3.70;;;26.70;91.20;27.20;97176.00;;;;5085479;28;20227;-70
2021/08/21 10:16:13;;;;;;;4.97;4.13;;;26.80;91.10;27.40;97176.00;;;;5086431;28;20197;-70
2021/08/21 10:19:03;;;;;;;5.37;4.50;;;26.80;87.60;28.10;97169.00;;;;5086009;28;20215;-70
2021/08/21 10:21:56;;;;;;;9.50;4.07;;;27.00;90.00;28.40;97167.00;;;;5084847;28;20253;-70
2021/08/21 10:24:48;;;;;;;4.43;4.03;;;27.20;89.70;28.20;97167.00;;;;5085813;28;20191;-74
2021/08/21 10:27:40;;;;;;;5.90;3.90;;;27.30;90.00;28.30;97164.00;;;;5098904;28;20206;-73
2021/08/21 10:30:43;;;;;;;4.10;3.37;;;27.40;87.80;28.10;97166.00;;;;5092737;28;20292;-73
2021/08/21 10:33:58;;;;;;;4.50;3.93;;;27.50;88.80;28.30;97162.00;;;;5101309;28;20212;-73
2021/08/21 10:36:53;;;;;;;4.70;4.00;;;27.60;85.90;28.60;97160.00;;;;5096902;28;20210;-73
2021/08/21 10:39:42;;;;;;;4.03;2.93;;;27.70;86.20;28.90;97169.00;;;;5102652;27;20573;-73
2021/08/21 10:42:33;;;;;;;3.80;3.17;;;27.90;87.30;28.80;97165.00;;;;5122297;27;20682;-73
2021/08/21 10:45:48;;;;;;;5.67;3.70;;;28.00;83.60;28.70;97154.00;;;;5090389;28;20202;-73
2021/08/21 10:48:55;;;;;;;5.97;3.97;;;28.00;83.60;29.50;97155.00;;;;5103377;28;20209;-73
2021/08/21 10:51:46;;;;;;;4.27;3.73;;;28.10;84.30;29.70;97151.00;;;;5103277;28;20226;-73
2021/08/21 10:54:47;;;;;;;4.37;3.73;;;28.30;83.80;29.70;97153.00;;;;5103774;28;20235;-73
2021/08/21 10:57:36;;;;;;;3.87;3.50;;;28.50;81.80;28.70;97151.00;;;;5105838;28;20203;-72
2021/08/21 11:01:03;;;;;;;3.30;3.00;;;28.60;77.40;29.90;97140.00;;;;5106515;28;20200;-73
2021/08/21 11:03:53;;;;;;;4.00;3.60;;;28.60;78.80;30.00;97148.00;;;;5105854;28;20193;-73
2021/08/21 11:06:42;;;;;;;3.47;3.13;;;28.70;79.90;30.20;97143.00;;;;5105735;28;20578;-73
2021/08/21 11:09:32;;;;;;;3.93;3.53;;;29.00;80.00;29.70;97144.00;;;;5106360;28;20579;-73
2021/08/21 11:12:37;;;;;;;5.20;4.70;;;29.30;77.00;28.40;97141.00;;;;5106442;28;20432;-74
2021/08/21 11:15:31;;;;;;;5.18;3.40;;;29.10;74.60;27.70;97126.00;;;;5106079;28;20227;-74
2021/08/21 11:18:21;;;;;;;4.30;3.75;;;28.70;72.90;27.30;97125.00;;;;5105620;28;20283;-73
2021/08/21 11:21:35;;;;;;;4.97;3.70;;;28.10;73.70;29.10;97124.00;;;;5105824;28;20720;-73
2021/08/21 11:24:27;;;;;;;3.60;3.15;;;28.00;78.10;29.30;97127.00;;;;5105850;28;20678;-73
2021/08/21 11:27:38;;;;;;;3.63;2.83;;;28.40;77.30;28.40;97128.00;;;;5106753;28;20622;-74
2021/08/21 11:30:28;;;;;;;3.70;3.40;;;28.70;74.20;29.60;97118.00;;;;5107471;28;20199;-73
2021/08/21 11:33:17;;;;;;;3.65;2.90;;;28.80;75.10;29.90;97121.00;;;;5105635;28;20206;-73
2021/08/21 11:36:06;;;;;;;3.58;3.28;;;29.00;73.30;30.60;97126.00;;;;5106591;28;20228;-73
2021/08/21 11:38:55;;;;;;;3.70;3.10;;;29.30;75.50;29.50;97115.00;;;;5106775;28;20197;-73
2021/08/21 11:41:57;;;;;;;3.72;3.38;;;29.60;71.60;30.30;97101.00;;;;5105931;28;20704;-72
2021/08/21 11:44:55;;;;;;;3.72;3.08;;;29.70;71.40;30.30;97113.00;;;;5106332;28;20204;-72
2021/08/21 11:47:44;;;;;;;3.83;3.30;;;29.80;70.50;31.00;97103.00;;;;5106353;28;20201;-72
2021/08/21 11:50:36;;;;;;;4.03;3.47;;;30.10;71.70;31.70;97106.00;;;;5105919;28;20216;-72
2021/08/21 11:53:28;;;;;;;13.07;3.53;;;30.30;71.20;31.20;97109.00;;;;5105411;28;20669;-72
2021/08/21 11:56:18;;;;;;;4.65;3.55;;;30.60;69.00;29.00;97100.00;;;;5105878;28;20256;-73
2021/08/21 11:59:08;;;;;;;4.55;3.67;;;30.10;66.30;30.20;97092.00;;;;5105817;28;20195;-72
2021/08/21 12:02:08;;;;;;;3.97;3.25;;;30.00;67.50;31.30;97097.00;;;;5107022;28;20226;-72
2021/08/21 12:04:57;;;;;;;4.88;3.50;;;30.20;69.90;31.20;97087.00;;;;5106152;28;20191;-72
2021/08/21 12:07:46;;;;;;;4.00;3.17;;;30.50;67.00;29.20;97086.00;;;;5108652;28;20202;-73
2021/08/21 12:10:46;;;;;;;4.13;3.72;;;30.10;66.80;29.30;97084.00;;;;5088976;28;20205;-72
2021/08/21 12:13:37;;;;;;;3.70;3.40;;;29.60;65.30;31.20;97094.00;;;;5089167;28;20195;-72
2021/08/21 12:16:30;;;;;;;3.88;3.33;;;29.70;67.80;32.10;97086.00;;;;5089489;28;20232;-72
2021/08/21 12:19:22;;;;;;;4.05;3.28;;;30.10;69.80;32.60;97089.00;;;;5089741;28;20199;-73
2021/08/21 12:22:12;;;;;;;4.05;3.25;;;30.70;69.20;32.10;97081.00;;;;5090325;28;20519;-72
2021/08/21 12:25:01;;;;;;;3.47;3.05;;;31.20;65.30;32.60;97073.00;;;;5089241;28;20199;-73
2021/08/21 12:27:49;;;;;;;4.13;3.20;;;31.50;63.30;32.90;97075.00;;;;5088790;28;20206;-72
2021/08/21 12:30:39;;;;;;;3.83;3.50;;;31.70;64.50;32.30;97077.00;;;;5089947;28;20210;-73
2021/08/21 12:33:34;;;;;;;3.97;3.58;;;31.70;64.90;33.00;97079.00;;;;5088743;28;20229;-72
2021/08/21 12:36:26;;;;;;;4.35;3.38;;;31.80;63.10;33.20;97061.00;;;;5068777;28;20235;-73
2021/08/21 12:39:21;;;;;;;6.72;3.88;;;31.90;62.40;33.00;97062.00;;;;5068714;28;20191;-73